FW4092 Weather Reports


time (UTC)temp
F
wind
direction
speed
knots
gust
knots
rain 1hr
in
rain 24hr
in
rain mn
in
humidity
%
barometer
mb
20191015141104 32 140 0.0 1.7 0.00 0.00 0.00 83 1017.3
20191015140601 32 140 0.9 1.7 0.00 0.00 0.00 82 1017.3
20191015140101 32 140 0.9 1.7 0.00 0.00 0.00 82 1017.2
20191015135601 32 160 0.9 2.6 0.00 0.00 0.00 82 1017.1
20191015135101 33 136 0.9 2.6 0.00 0.00 0.00 82 1017.2
20191015134603 33 126 0.9 2.6 0.00 0.00 0.00 81 1017.2
20191015134102 33 163 0.0 1.7 0.00 0.00 0.00 80 1017.0
20191015133602 33 163 0.0 1.7 0.00 0.00 0.00 79 1017.1
20191015133102 34 153 0.9 4.3 0.00 0.00 0.00 79 1016.9
20191015132602 34 153 0.9 4.3 0.00 0.00 0.00 79 1016.9
20191015132102 34 146 0.9 2.6 0.00 0.00 0.00 79 1016.9
20191015131602 34 153 0.9 2.6 0.00 0.00 0.00 79 1017.0
20191015131102 35 146 0.9 1.7 0.00 0.00 0.00 77 1016.9
20191015130602 35 134 0.9 3.5 0.00 0.00 0.00 76 1017.0
20191015130108 35 135 0.9 3.5 0.00 0.00 0.00 78 1017.0
20191015125559 35 166 0.9 1.7 0.00 0.00 0.00 78 1016.9
20191015125100 35 150 0.0 1.7 0.00 0.00 0.00 78 1016.9
20191015124600 35 150 0.0 1.7 0.00 0.00 0.00 77 1016.9
20191015124059 35 150 0.9 2.6 0.00 0.00 0.00 77 1016.8
20191015123558 35 153 0.9 2.6 0.00 0.00 0.00 77 1016.9
20191015123058 35 190 0.9 2.6 0.00 0.00 0.00 78 1016.8
20191015122557 35 193 0.9 3.5 0.00 0.00 0.00 78 1016.8
20191015122058 35 196 0.9 3.5 0.00 0.00 0.00 79 1016.6
20191015121558 35 180 0.9 1.7 0.00 0.00 0.00 80 1016.8
20191015121057 34 161 0.9 1.7 0.00 0.00 0.00 80 1016.8
20191015120559 34 153 1.7 3.5 0.00 0.00 0.00 80 1016.8
20191015120057 33 140 1.7 3.5 0.00 0.00 0.00 81 1016.6
20191015115556 33 149 2.6 4.3 0.00 0.00 0.00 80 1016.6
20191015115055 34 148 2.6 4.3 0.00 0.00 0.00 80 1016.6
20191015114555 33 138 2.6 5.2 0.00 0.00 0.00 80 1016.8
20191015114055 33 143 0.9 5.2 0.00 0.00 0.00 80 1016.8
20191015113555 33 122 0.0 0.9 0.00 0.00 0.00 79 1016.8
20191015113056 34 121 0.0 1.7 0.00 0.00 0.00 78 1016.9
20191015112555 34 121 0.9 1.7 0.00 0.00 0.00 79 1016.9
20191015112056 34 118 1.7 5.2 0.00 0.00 0.00 78 1016.9
20191015111555 35 134 3.5 7.0 0.00 0.00 0.00 78 1016.9
20191015111055 35 136 3.5 7.0 0.00 0.00 0.00 79 1017.0
20191015110553 34 146 3.5 7.0 0.00 0.00 0.00 79 1016.8
20191015110053 34 150 2.6 5.2 0.00 0.00 0.00 80 1016.8
20191015105554 34 155 2.6 6.1 0.00 0.00 0.00 80 1017.0
20191015105053 34 144 2.6 6.1 0.00 0.00 0.00 80 1017.0
20191015104554 34 144 2.6 6.1 0.00 0.00 0.00 81 1017.2
20191015104053 34 132 2.6 6.1 0.00 0.00 0.00 81 1017.2
20191015103551 34 135 2.6 6.1 0.00 0.00 0.00 81 1017.2
20191015103051 34 143 2.6 5.2 0.00 0.00 0.00 81 1017.3
20191015102549 34 158 1.7 5.2 0.00 0.00 0.00 82 1017.3
20191015102050 33 148 1.7 4.3 0.00 0.00 0.00 83 1017.5
20191015101553 33 186 0.9 3.5 0.00 0.00 0.00 84 1017.5
20191015101049 33 161 0.9 1.7 0.00 0.00 0.00 83 1017.5
20191015100548 33 161 0.9 1.7 0.00 0.00 0.00 82 1017.7
20191015100049 34 161 0.9 1.7 0.00 0.00 0.00 81 1017.6
20191015095550 34 168 0.9 1.7 0.00 0.00 0.00 81 1017.6
20191015095049 35 168 0.0 2.6 0.00 0.00 0.00 80 1017.7
20191015094549 35 168 0.9 2.6 0.00 0.00 0.00 79 1017.8
20191015094049 36 157 0.9 4.3 0.00 0.00 0.00 79 1017.8
20191015093550 36 145 1.7 4.3 0.00 0.00 0.00 79 1017.8
20191015093049 36 139 0.9 2.6 0.00 0.00 0.00 79 1017.7
20191015092549 36 151 0.9 2.6 0.00 0.00 0.00 80 1017.7
20191015092049 36 152 0.9 3.5 0.00 0.00 0.00 79 1017.8
20191015091548 36 156 1.7 3.5 0.00 0.00 0.00 79 1017.7
20191015091048 37 157 1.7 3.5 0.00 0.00 0.00 79 1017.8
20191015090549 36 152 0.9 2.6 0.00 0.00 0.00 79 1017.8
20191015090048 36 146 0.0 1.7 0.00 0.00 0.00 80 1017.9
20191015085549 36 149 0.0 0.9 0.00 0.00 0.00 80 1017.8
20191015085049 36 149 0.9 2.6 0.00 0.00 0.00 79 1017.8
20191015084549 37 135 0.9 2.6 0.00 0.00 0.00 79 1017.9
20191015084049 37 135 0.9 1.7 0.00 0.00 0.00 78 1017.9
20191015083548 37 135 0.0 0.9 0.00 0.00 0.00 78 1017.9
20191015083049 37 135 0.0 0.9 0.00 0.00 0.00 77 1018.2
20191015082549 38 135 0.0 0.9 0.00 0.00 0.00 78 1018.1
20191015082048 38 135 0.0 0.9 0.00 0.00 0.00 77 1018.1
20191015081551 38 135 0.0 0.9 0.00 0.00 0.00 75 1018.2
20191015081049 38 135 0.0 0.9 0.00 0.00 0.00 75 1018.2
20191015080549 39 135 0.0 0.0 0.00 0.00 0.00 75 1018.1
20191015080049 39 135 0.0 0.9 0.00 0.00 0.00 74 1018.1
20191015075549 39 135 0.0 1.7 0.00 0.00 0.00 74 1018.1
20191015075050 39 135 0.9 1.7 0.00 0.00 0.00 74 1017.9
20191015074549 39 135 0.9 1.7 0.00 0.00 0.00 74 1017.9
20191015074050 39 135 0.9 1.7 0.00 0.00 0.00 74 1017.9
20191015073546 40 135 0.0 0.9 0.00 0.00 0.00 73 1018.2
20191015073047 40 135 0.9 1.7 0.00 0.00 0.00 72 1018.2
20191015072547 40 135 0.9 1.7 0.00 0.00 0.00 72 1017.9
20191015072047 40 135 0.9 1.7 0.00 0.00 0.00 72 1018.2
20191015071547 40 135 0.9 1.7 0.00 0.00 0.00 72 1018.3
20191015071046 41 135 0.9 1.7 0.00 0.00 0.00 71 1018.2
20191015070546 41 135 0.9 2.6 0.00 0.00 0.00 70 1018.2
20191015070053 41 135 0.9 2.6 0.00 0.00 0.00 68 1018.3
20191015065546 42 159 0.9 1.7 0.00 0.00 0.00 67 1018.1
20191015065044 42 232 0.9 2.6 0.00 0.00 0.00 66 1018.1
20191015064544 42 247 0.9 2.6 0.00 0.00 0.00 66 1018.1
20191015064044 42 269 0.9 2.6 0.00 0.00 0.00 65 1017.9
20191015063543 43 240 0.9 2.6 0.00 0.00 0.00 63 1017.9
20191015063042 43 238 0.0 2.6 0.00 0.00 0.00 62 1017.8
20191015062543 43 219 0.0 1.7 0.00 0.00 0.00 61 1017.8
20191015062043 44 219 0.0 0.9 0.00 0.00 0.00 61 1017.7
20191015061541 44 219 0.0 0.9 0.00 0.00 0.00 61 1017.8
20191015061043 44 219 0.9 0.9 0.00 0.00 0.00 61 1017.7
20191015060540 44 219 0.9 1.7 0.00 0.00 0.00 61 1017.8
20191015060039 44 219 0.9 1.7 0.00 0.00 0.00 61 1017.8
20191015055539 44 219 0.0 0.9 0.00 0.00 0.00 61 1017.9
20191015055038 44 219 0.9 0.9 0.00 0.00 0.00 61 1017.9
20191015054538 44 219 0.9 0.9 0.00 0.00 0.00 61 1017.9
20191015054038 44 219 0.9 0.9 0.00 0.00 0.00 60 1017.8
20191015053538 45 219 0.9 1.7 0.00 0.00 0.00 60 1017.8
20191015053038 45 219 0.0 1.7 0.00 0.00 0.00 60 1017.8
20191015052538 44 219 0.0 0.9 0.00 0.00 0.00 60 1017.7
20191015052037 45 219 0.0 1.7 0.00 0.00 0.00 61 1017.8
20191015051540 45 219 0.0 1.7 0.00 0.00 0.00 61 1017.7
20191015051036 45 211 0.9 2.6 0.00 0.00 0.00 61 1017.7
20191015050536 45 211 0.9 2.6 0.00 0.00 0.00 62 1017.7
20191015050036 45 257 0.9 2.6 0.00 0.00 0.00 62 1017.7
20191015045536 45 265 0.9 2.6 0.00 0.00 0.00 63 1017.6
20191015045036 45 274 1.7 2.6 0.00 0.00 0.00 63 1017.5
20191015044536 45 274 1.7 3.5 0.00 0.00 0.00 63 1017.5
20191015044036 45 286 1.7 3.5 0.00 0.00 0.00 64 1017.4
20191015043537 44 279 0.9 2.6 0.00 0.00 0.00 65 1017.4
20191015043036 44 279 0.9 1.7 0.00 0.00 0.00 65 1017.3
20191015042536 44 281 0.9 2.6 0.00 0.00 0.00 65 1017.3
20191015042036 44 288 0.9 2.6 0.00 0.00 0.00 66 1017.3
20191015041534 45 285 0.9 2.6 0.00 0.00 0.00 66 1017.2
20191015041034 45 284 0.9 2.6 0.00 0.00 0.00 66 1017.2
20191015040534 45 300 0.9 2.6 0.00 0.00 0.00 66 1017.1
20191015040035 45 294 0.9 2.6 0.00 0.00 0.00 66 1017.2
20191015035532 45 294 0.9 1.7 0.00 0.00 0.00 66 1016.9
20191015035032 45 295 0.9 1.7 0.00 0.00 0.00 65 1016.8
20191015034530 46 301 0.9 1.7 0.00 0.00 0.00 65 1016.6
20191015034030 46 301 0.9 1.7 0.00 0.00 0.00 64 1016.6
20191015033528 46 301 0.9 1.7 0.00 0.00 0.00 64 1016.5
20191015033028 46 301 0.9 2.6 0.00 0.00 0.00 64 1016.5
20191015032529 46 301 0.9 2.6 0.00 0.00 0.00 64 1016.5
20191015032027 47 291 0.9 2.6 0.00 0.00 0.00 64 1016.5
20191015031528 47 302 0.9 2.6 0.00 0.00 0.00 64 1016.5
20191015031031 47 290 0.9 2.6 0.00 0.00 0.00 64 1016.4
20191015030528 47 309 0.9 2.6 0.00 0.00 0.00 63 1016.4
20191015030030 47 314 0.9 3.5 0.00 0.00 0.00 63 1016.3
20191015025529 47 313 0.9 3.5 0.00 0.00 0.00 63 1016.3
20191015025028 47 317 0.9 2.6 0.00 0.00 0.00 63 1016.4
20191015024528 47 293 0.9 1.7 0.00 0.00 0.00 62 1016.3
20191015024028 48 286 0.9 1.7 0.00 0.00 0.00 62 1016.3
20191015023528 48 340 0.9 1.7 0.00 0.00 0.00 61 1016.3
20191015023027 49 346 0.0 1.7 0.00 0.00 0.00 60 1016.3
20191015022528 49 355 0.0 1.7 0.00 0.00 0.00 59 1016.3
20191015022029 50 355 0.0 1.7 0.00 0.00 0.00 59 1016.1
20191015021528 50 355 0.0 0.9 0.00 0.00 0.00 58 1016.1
20191015021027 51 355 0.0 2.6 0.00 0.00 0.00 57 1016.1
20191015020528 51 355 0.9 2.6 0.00 0.00 0.00 56 1016.1
20191015020027 52 11 0.9 2.6 0.00 0.00 0.00 55 1015.9
20191015015527 52 334 0.9 2.6 0.00 0.00 0.00 54 1015.8
20191015015027 53 347 0.9 1.7 0.00 0.00 0.00 53 1015.8
20191015014528 53 346 0.9 3.5 0.00 0.00 0.00 52 1015.8
20191015014027 54 346 0.9 3.5 0.00 0.00 0.00 51 1015.8
20191015013528 54 349 0.9 3.5 0.00 0.00 0.00 49 1015.7
20191015013026 55 345 0.9 3.5 0.00 0.00 0.00 48 1015.7
20191015012526 55 302 0.9 2.6 0.00 0.00 0.00 46 1015.7
20191015012024 56 338 0.9 2.6 0.00 0.00 0.00 45 1015.7
20191015011524 57 328 0.9 2.6 0.00 0.00 0.00 43 1015.6
20191015011023 58 326 1.7 3.5 0.00 0.00 0.00 41 1015.6
20191015010522 59 338 1.7 7.0 0.00 0.00 0.00 37 1015.6
20191015010021 60 355 0.9 7.0 0.00 0.00 0.00 34 1015.6
20191015005521 61 340 0.0 1.7 0.00 0.00 0.00 29 1015.6
20191015005027 62 28 0.0 0.9 0.00 0.00 0.00 27 1015.3
20191015004528 62 28 0.0 0.9 0.00 0.00 0.00 27 1015.4
20191015004025 62 28 0.0 0.9 0.00 0.00 0.00 27 1015.3
20191015003519 62 28 0.0 0.9 0.00 0.00 0.00 28 1015.3
20191015003018 62 28 0.0 2.6 0.00 0.00 0.00 30 1015.3
20191015002519 62 28 0.9 2.6 0.00 0.00 0.00 28 1015.3
20191015002020 62 82 0.9 2.6 0.00 0.00 0.00 29 1015.4
20191015001519 62 84 0.9 3.5 0.00 0.00 0.00 29 1015.4
20191015001019 62 20 0.9 3.5 0.00 0.00 0.00 29 1015.3
20191015000519 63 71 0.9 3.5 0.00 0.00 0.00 29 1015.4
20191015000020 63 66 0.9 3.5 0.00 0.00 0.00 28 1015.3
20191014235519 63 9 0.9 2.6 0.00 0.00 0.00 30 1015.4
20191014235020 62 69 0.9 2.6 0.00 0.00 0.00 31 1015.6
20191014234519 62 61 0.9 2.6 0.00 0.00 0.00 31 1015.7
20191014234017 62 278 0.9 2.6 0.00 0.00 0.00 31 1015.9
20191014233518 62 277 0.9 2.6 0.00 0.00 0.00 31 1015.8
20191014233018 62 47 1.7 4.3 0.00 0.00 0.00 30 1015.7
20191014232517 62 36 1.7 4.3 0.00 0.00 0.00 31 1015.8
20191014232017 62 63 1.7 4.3 0.00 0.00 0.00 32 1015.9
20191014231517 62 319 0.9 3.5 0.00 0.00 0.00 30 1015.9
20191014231017 62 355 0.9 3.5 0.00 0.00 0.00 31 1016.0
20191014230518 62 335 0.9 3.5 0.00 0.00 0.00 31 1016.0
20191014230017 61 274 1.7 4.3 0.00 0.00 0.00 32 1016.1
20191014225517 61 22 1.7 4.3 0.00 0.00 0.00 33 1016.1
20191014225015 62 290 1.7 3.5 0.00 0.00 0.00 33 1016.1
20191014224515 61 252 1.7 4.3 0.00 0.00 0.00 33 1016.1
20191014224015 61 348 1.7 4.3 0.00 0.00 0.00 34 1016.1
20191014223516 61 5 1.7 3.5 0.00 0.00 0.00 34 1016.1
20191014223015 61 236 0.9 3.5 0.00 0.00 0.00 35 1016.1
20191014222515 61 337 1.7 3.5 0.00 0.00 0.00 34 1016.0
20191014222013 61 65 1.7 4.3 0.00 0.00 0.00 36 1016.0
20191014221513 61 19 1.7 4.3 0.00 0.00 0.00 36 1016.0
20191014221013 61 344 1.7 4.3 0.00 0.00 0.00 36 1015.9
20191014220517 60 80 1.7 6.1 0.00 0.00 0.00 37 1015.8
20191014220013 60 26 1.7 6.1 0.00 0.00 0.00 37 1015.7
20191014215515 60 310 1.7 7.0 0.00 0.00 0.00 36 1015.8
20191014215016 60 90 1.7 7.0 0.00 0.00 0.00 38 1015.7
20191014214513 59 115 1.7 3.5 0.00 0.00 0.00 40 1015.7
20191014214012 59 339 1.7 3.5 0.00 0.00 0.00 43 1015.9
20191014213511 59 105 1.7 3.5 0.00 0.00 0.00 44 1016.0
20191014213013 58 27 1.7 3.5 0.00 0.00 0.00 43 1016.1
20191014212511 58 349 1.7 3.5 0.00 0.00 0.00 44 1016.2
20191014212010 58 355 1.7 3.5 0.00 0.00 0.00 44 1016.1
20191014211511 58 107 1.7 3.5 0.00 0.00 0.00 45 1016.1
20191014211011 58 15 1.7 4.3 0.00 0.00 0.00 47 1016.1
20191014210511 58 350 1.7 4.3 0.00 0.00 0.00 47 1016.2
20191014210011 58 0 0.9 3.5 0.00 0.00 0.00 50 1016.3
20191014205511 57 27 1.7 5.2 0.00 0.00 0.00 48 1016.3
20191014205011 57 61 1.7 5.2 0.00 0.00 0.00 47 1016.5
20191014204511 56 336 1.7 2.6 0.00 0.00 0.00 50 1016.5
20191014204010 56 128 1.7 2.6 0.00 0.00 0.00 48 1016.6
20191014203511 57 104 0.9 3.5 0.00 0.00 0.00 49 1016.6
20191014203011 56 148 0.9 3.5 0.00 0.00 0.00 50 1016.5
20191014202511 56 269 1.7 4.3 0.00 0.00 0.00 49 1016.5
20191014202011 56 173 1.7 4.3 0.00 0.00 0.00 52 1016.5
20191014201510 56 102 1.7 5.2 0.00 0.00 0.00 54 1016.5
20191014201011 56 103 1.7 5.2 0.00 0.00 0.00 55 1016.6
20191014200511 55 355 1.7 4.3 0.00 0.00 0.00 57 1016.5
20191014200011 54 69 0.9 4.3 0.00 0.00 0.00 58 1016.6
20191014195511 54 0 1.7 4.3 0.00 0.00 0.00 58 1016.6
20191014195012 54 19 0.9 3.5 0.00 0.00 0.00 59 1016.6
20191014194510 54 82 1.7 6.1 0.00 0.00 0.00 59 1016.8
20191014194011 53 104 1.7 6.1 0.00 0.00 0.00 60 1016.8
20191014193510 53 113 1.7 5.2 0.00 0.00 0.00 61 1016.8
20191014193011 53 44 1.7 4.3 0.00 0.00 0.00 64 1016.8
20191014192511 53 57 1.7 4.3 0.00 0.00 0.00 62 1016.9
20191014192011 53 158 1.7 5.2 0.00 0.00 0.00 64 1016.9
20191014191513 52 90 1.7 5.2 0.00 0.00 0.00 63 1016.9
20191014191010 52 113 0.9 3.5 0.00 0.00 0.00 65 1017.0
20191014190511 52 72 0.9 3.5 0.00 0.00 0.00 66 1017.1
20191014190009 51 113 1.7 3.5 0.00 0.00 0.00 66 1017.0
20191014185508 51 132 1.7 3.5 0.00 0.00 0.00 66 1017.1
20191014185009 51 67 1.7 5.2 0.00 0.00 0.00 67 1017.2
20191014184508 51 130 1.7 5.2 0.00 0.00 0.00 68 1017.3
20191014184009 50 88 0.9 3.5 0.00 0.00 0.00 69 1017.4
20191014183508 50 65 0.9 3.5 0.00 0.00 0.00 70 1017.5
20191014183006 49 345 0.9 2.6 0.00 0.00 0.00 71 1017.5
20191014182506 49 338 0.9 3.5 0.00 0.00 0.00 71 1017.5
20191014182006 49 30 0.9 3.5 0.00 0.00 0.00 72 1017.5
20191014181505 49 26 0.9 2.6 0.00 0.00 0.00 74 1017.5
20191014181004 48 63 1.7 3.5 0.00 0.00 0.00 73 1017.5
20191014180504 48 22 0.9 3.5 0.00 0.00 0.00 74 1017.5
20191014180006 47 34 0.9 3.5 0.00 0.00 0.00 74 1017.5
20191014175504 47 345 0.9 3.5 0.00 0.00 0.00 75 1017.5
20191014175004 47 32 0.9 2.6 0.00 0.00 0.00 76 1017.5
20191014174504 47 9 0.9 2.6 0.00 0.00 0.00 75 1017.6
20191014174004 47 31 0.9 1.7 0.00 0.00 0.00 76 1017.6
20191014173505 47 36 0.9 1.7 0.00 0.00 0.00 76 1017.6
20191014173004 47 65 0.9 2.6 0.00 0.00 0.00 75 1017.5
20191014172503 46 70 0.9 2.6 0.00 0.00 0.00 76 1017.5
20191014172002 46 333 0.9 2.6 0.00 0.00 0.00 78 1017.6
20191014171503 45 326 0.9 2.6 0.00 0.00 0.00 78 1017.6
20191014171003 45 47 0.9 1.7 0.00 0.00 0.00 81 1017.6
20191014170504 45 54 0.9 1.7 0.00 0.00 0.00 80 1017.6
20191014170005 44 54 0.9 1.7 0.00 0.00 0.00 82 1017.7
20191014165505 43 84 0.0 1.7 0.00 0.00 0.00 85 1017.7
20191014165003 42 341 0.9 2.6 0.00 0.00 0.00 87 1017.7
20191014164505 41 341 1.7 2.6 0.00 0.00 0.00 88 1017.7
20191014164002 41 5 0.9 2.6 0.00 0.00 0.00 88 1017.7
20191014163501 40 18 0.9 1.7 0.00 0.00 0.00 90 1017.7
20191014163000 39 22 0.9 1.7 0.00 0.00 0.00 91 1017.6
20191014162501 38 22 0.9 1.7 0.00 0.00 0.00 92 1017.7
20191014162000 38 22 0.9 1.7 0.00 0.00 0.00 91 1017.6
20191014161500 38 22 0.9 1.7 0.00 0.00 0.00 91 1017.6
20191014160959 38 22 0.9 1.7 0.00 0.00 0.00 91 1017.6
20191014160500 38 22 0.9 1.7 0.00 0.00 0.00 91 1017.6
20191014160000 38 33 0.9 1.7 0.00 0.00 0.00 91 1017.6
20191014155500 38 71 0.9 1.7 0.00 0.00 0.00 91 1017.5
20191014154959 38 71 0.0 0.9 0.00 0.00 0.00 95 1017.3
20191014154459 38 71 0.0 1.7 0.00 0.00 0.00 97 1017.3
20191014154000 37 72 0.9 1.7 0.00 0.00 0.00 97 1017.2
20191014153500 35 71 0.0 1.7 0.00 0.00 0.00 97 1017.2
20191014153000 35 66 0.0 0.9 0.00 0.00 0.00 96 1017.2
20191014152503 34 66 0.0 0.0 0.00 0.00 0.00 95 1017.2
20191014152000 34 66 0.0 1.7 0.00 0.00 0.00 96 1017.2
20191014151505 34 66 0.9 1.7 0.00 0.00 0.00 96 1017.2
20191014151003 34 68 0.0 1.7 0.00 0.00 0.00 96 1017.1
20191014150503 34 126 0.0 0.9 0.00 0.00 0.00 96 1017.0
20191014150005 34 127 0.0 0.9 0.00 0.00 0.00 96 1016.9
20191014145505 33 127 0.9 1.7 0.00 0.00 0.00 95 1016.9
20191014145006 34 127 0.9 1.7 0.00 0.00 0.00 96 1016.9
20191014144505 33 127 0.9 1.7 0.00 0.00 0.00 96 1016.8
20191014144002 33 127 0.9 1.7 0.00 0.00 0.00 96 1016.8
20191014143505 33 127 0.9 2.6 0.00 0.00 0.00 95 1016.8
20191014143003 33 127 0.9 2.6 0.00 0.00 0.00 95 1016.6
20191014142503 33 109 0.9 1.7 0.00 0.00 0.00 95 1016.9
20191014142003 33 106 0.0 1.7 0.00 0.00 0.00 94 1016.9
20191014141507 33 106 0.0 0.9 0.00 0.00 0.00 94 1016.9